createdAt,value
2024-01-09T00:00:31.670Z,14.23
2024-01-09T00:02:59.840Z,10.23
2024-01-09T00:05:27.653Z,10.05
2024-01-09T00:07:54.073Z,9.40
2024-01-09T00:10:20.424Z,12.18
2024-01-09T00:12:46.764Z,11.48
2024-01-09T00:15:13.154Z,11.30
2024-01-09T00:17:41.163Z,11.52
2024-01-09T00:20:07.992Z,11.63
2024-01-09T00:22:34.376Z,10.27
2024-01-09T00:25:00.772Z,12.27
2024-01-09T00:27:27.108Z,13.05
2024-01-09T00:29:53.466Z,12.52
2024-01-09T00:32:19.820Z,12.75
2024-01-09T00:34:46.208Z,10.18
2024-01-09T00:37:12.687Z,11.80
2024-01-09T00:39:39.044Z,11.68
2024-01-09T00:42:05.430Z,12.60
2024-01-09T00:44:31.785Z,12.93
2024-01-09T00:46:58.191Z,12.57
2024-01-09T00:49:24.832Z,13.63
2024-01-09T00:51:51.256Z,12.95
2024-01-09T00:54:17.623Z,13.25
2024-01-09T00:56:44.032Z,12.77
2024-01-09T00:59:10.391Z,12.95
2024-01-09T01:01:36.767Z,12.20
2024-01-09T01:04:03.142Z,11.85
2024-01-09T01:06:29.524Z,11.60
2024-01-09T01:08:55.927Z,12.52
2024-01-09T01:11:22.317Z,11.90
2024-01-09T01:13:48.667Z,12.38
2024-01-09T01:16:14.988Z,13.13
2024-01-09T01:18:41.382Z,10.50
2024-01-09T01:21:07.760Z,15.07
2024-01-09T01:23:34.266Z,11.75
2024-01-09T01:26:00.695Z,11.05
2024-01-09T01:28:27.073Z,13.20
2024-01-09T01:30:53.438Z,13.02
2024-01-09T01:33:19.975Z,11.38
2024-01-09T01:35:46.381Z,12.60
2024-01-09T01:38:12.794Z,13.20
2024-01-09T01:40:39.232Z,11.70
2024-01-09T01:43:06.054Z,14.20
2024-01-09T01:45:32.506Z,11.35
2024-01-09T01:48:00.711Z,11.48
2024-01-09T01:50:29.345Z,14.75
2024-01-09T01:52:56.017Z,14.30
2024-01-09T01:55:24.469Z,11.52
2024-01-09T01:57:52.461Z,12.35
2024-01-09T02:00:20.439Z,13.07
2024-01-09T02:02:48.271Z,13.32
2024-01-09T02:05:14.906Z,12.32
2024-01-09T02:07:46.434Z,12.38
2024-01-09T02:10:12.990Z,13.25
2024-01-09T02:12:39.722Z,14.32
2024-01-09T02:15:06.533Z,12.52
2024-01-09T02:17:33.359Z,12.45
2024-01-09T02:20:00.268Z,14.32
2024-01-09T02:22:26.617Z,13.02
2024-01-09T02:24:53.070Z,12.13
2024-01-09T02:27:57.158Z,10.70
2024-01-09T02:30:24.851Z,13.77
2024-01-09T02:32:52.512Z,11.13
2024-01-09T02:35:19.322Z,12.48
2024-01-09T02:37:45.721Z,13.55
2024-01-09T02:40:12.085Z,12.85
2024-01-09T02:42:38.506Z,11.90
2024-01-09T02:45:05.216Z,14.52
2024-01-09T02:47:31.662Z,12.95
2024-01-09T02:49:58.076Z,13.80
2024-01-09T02:52:24.449Z,16.65
2024-01-09T02:54:50.770Z,11.55
2024-01-09T02:57:17.247Z,15.20
2024-01-09T02:59:43.655Z,11.65
2024-01-09T03:02:10.316Z,16.50
2024-01-09T03:04:36.637Z,14.57
2024-01-09T03:07:03.165Z,12.93
2024-01-09T03:09:30.004Z,15.13
2024-01-09T03:11:56.349Z,14.95
2024-01-09T03:14:22.728Z,14.75
2024-01-09T03:16:49.304Z,13.07
2024-01-09T03:19:16.488Z,14.20
2024-01-09T03:21:43.097Z,14.13
2024-01-09T03:24:09.482Z,16.15
2024-01-09T03:26:35.825Z,11.63
2024-01-09T03:29:02.277Z,13.48
2024-01-09T03:31:28.651Z,14.45
2024-01-09T03:33:55.183Z,16.60
2024-01-09T03:36:21.568Z,16.30
2024-01-09T03:38:48.089Z,14.30
2024-01-09T03:41:14.501Z,16.10
2024-01-09T03:43:40.853Z,18.77
2024-01-09T03:46:07.157Z,18.80
2024-01-09T03:48:33.628Z,16.23
2024-01-09T03:51:00.075Z,15.07
2024-01-09T03:53:26.430Z,15.55
2024-01-09T03:55:52.777Z,15.10
2024-01-09T03:58:19.675Z,16.05
2024-01-09T04:00:46.081Z,15.52
2024-01-09T04:03:12.548Z,16.27
2024-01-09T04:05:39.085Z,16.70
2024-01-09T04:08:05.874Z,15.73
2024-01-09T04:10:32.304Z,15.57
2024-01-09T04:12:58.647Z,17.02
2024-01-09T04:15:25.006Z,17.33
2024-01-09T04:17:51.410Z,17.02
2024-01-09T04:20:17.896Z,16.77
2024-01-09T04:22:44.244Z,15.23
2024-01-09T04:25:10.600Z,16.98
2024-01-09T04:27:36.923Z,17.17
2024-01-09T04:30:03.497Z,15.10
2024-01-09T04:32:30.177Z,18.83
2024-01-09T04:34:57.001Z,14.60
2024-01-09T04:37:23.517Z,15.13
2024-01-09T04:39:50.196Z,15.30
2024-01-09T04:42:16.525Z,14.80
2024-01-09T04:44:43.310Z,18.65
2024-01-09T04:47:09.687Z,19.15
2024-01-09T04:49:36.104Z,16.23
2024-01-09T04:52:02.527Z,17.55
2024-01-09T04:54:28.895Z,14.98
2024-01-09T04:56:58.578Z,17.58
2024-01-09T04:59:26.123Z,18.00
2024-01-09T05:01:52.571Z,17.67
2024-01-09T05:04:18.916Z,20.38
2024-01-09T05:06:45.422Z,16.20
2024-01-09T05:09:12.485Z,14.43
2024-01-09T05:11:39.037Z,20.05
2024-01-09T05:14:05.424Z,18.67
2024-01-09T05:16:31.756Z,18.35
2024-01-09T05:18:58.292Z,22.60
2024-01-09T05:21:24.666Z,22.17
2024-01-09T05:23:51.052Z,17.85
2024-01-09T05:26:19.269Z,18.35
2024-01-09T05:28:46.839Z,20.75
2024-01-09T05:31:13.481Z,20.67
2024-01-09T05:33:40.021Z,16.58
2024-01-09T05:36:07.399Z,19.40
2024-01-09T05:38:34.505Z,20.42
2024-01-09T05:41:01.018Z,18.15
2024-01-09T05:43:27.344Z,14.18
2024-01-09T05:45:53.674Z,21.98
2024-01-09T05:48:20.140Z,19.15
2024-01-09T05:50:46.698Z,18.77
2024-01-09T05:53:13.161Z,22.15
2024-01-09T05:55:39.569Z,18.80
2024-01-09T05:58:07.234Z,22.90
2024-01-09T06:00:33.628Z,23.33
2024-01-09T06:03:00.023Z,20.75
2024-01-09T06:05:26.585Z,15.88
2024-01-09T06:07:52.972Z,20.73
2024-01-09T06:10:19.320Z,24.98
2024-01-09T06:12:45.671Z,21.15
2024-01-09T06:15:12.060Z,23.50
2024-01-09T06:17:38.525Z,22.17
2024-01-09T06:20:05.312Z,27.88
2024-01-09T06:22:31.713Z,25.23
2024-01-09T06:24:58.330Z,21.52
2024-01-09T06:27:26.831Z,23.00
2024-01-09T06:29:53.200Z,21.88
2024-01-09T06:32:19.776Z,21.33
2024-01-09T06:34:46.166Z,25.63
2024-01-09T06:37:12.572Z,22.17
2024-01-09T06:39:39.014Z,25.15
2024-01-09T06:42:05.634Z,25.08
2024-01-09T06:44:32.032Z,22.60
2024-01-09T06:46:58.413Z,22.60
2024-01-09T06:49:24.817Z,19.85
2024-01-09T06:51:51.200Z,25.60
2024-01-09T06:54:17.582Z,28.13
2024-01-09T06:56:44.137Z,28.10
2024-01-09T06:59:10.663Z,24.08
2024-01-09T07:01:37.213Z,23.40
2024-01-09T07:04:03.888Z,29.50
2024-01-09T07:06:30.378Z,28.83
2024-01-09T07:08:56.824Z,26.38
2024-01-09T07:11:23.304Z,26.75
2024-01-09T07:13:49.687Z,25.95
2024-01-09T07:16:16.062Z,27.80
2024-01-09T07:18:42.551Z,27.00
2024-01-09T07:21:09.166Z,29.42
2024-01-09T07:23:35.730Z,21.30
2024-01-09T07:26:02.093Z,31.80
2024-01-09T07:28:30.957Z,22.08
2024-01-09T07:31:01.191Z,28.60
2024-01-09T07:33:27.940Z,27.20
2024-01-09T07:35:54.484Z,32.03
2024-01-09T07:38:20.927Z,18.67
2024-01-09T07:40:47.415Z,28.80
2024-01-09T07:43:13.779Z,25.88
2024-01-09T07:45:40.105Z,23.20
2024-01-09T07:48:06.869Z,27.98
2024-01-09T07:50:33.289Z,24.92
2024-01-09T07:53:02.129Z,33.47
2024-01-09T07:55:29.306Z,29.58
2024-01-09T07:57:55.627Z,31.52
2024-01-09T08:00:22.129Z,28.52
2024-01-09T08:02:48.756Z,27.52
2024-01-09T08:05:15.716Z,28.05
2024-01-09T08:07:42.176Z,30.88
2024-01-09T08:10:08.930Z,34.92
2024-01-09T08:12:35.269Z,24.55
2024-01-09T08:15:01.770Z,32.60
2024-01-09T08:17:28.539Z,30.02
2024-01-09T08:19:55.008Z,25.00
2024-01-09T08:22:21.424Z,30.85
2024-01-09T08:24:47.799Z,32.50
2024-01-09T08:27:14.170Z,32.65
2024-01-09T08:29:40.694Z,29.67
2024-01-09T08:32:07.055Z,28.48
2024-01-09T08:34:33.579Z,30.15
2024-01-09T08:37:00.020Z,36.53
2024-01-09T08:39:26.380Z,32.08
2024-01-09T08:41:52.739Z,33.88
2024-01-09T08:44:19.152Z,30.08
2024-01-09T08:46:45.538Z,32.55
2024-01-09T08:49:11.944Z,34.28
2024-01-09T08:51:38.346Z,32.50
2024-01-09T08:54:05.024Z,26.83
2024-01-09T08:56:31.434Z,27.33
2024-01-09T08:58:57.827Z,31.90
2024-01-09T09:01:24.253Z,37.08
2024-01-09T09:03:50.647Z,36.35
2024-01-09T09:06:17.119Z,33.40
2024-01-09T09:08:43.592Z,26.75
2024-01-09T09:11:10.770Z,37.10
2024-01-09T09:13:37.162Z,32.10
2024-01-09T09:16:03.541Z,30.15
2024-01-09T09:18:30.006Z,31.33
2024-01-09T09:20:56.568Z,35.63
2024-01-09T09:23:23.049Z,38.45
2024-01-09T09:25:49.708Z,33.65
2024-01-09T09:28:16.133Z,31.98
2024-01-09T09:30:42.597Z,32.42
2024-01-09T09:33:09.077Z,34.50
2024-01-09T09:35:35.514Z,41.45
2024-01-09T09:38:01.876Z,33.00
2024-01-09T09:40:28.275Z,33.05
2024-01-09T09:42:57.690Z,39.10
2024-01-09T09:45:24.863Z,32.70
2024-01-09T09:47:54.324Z,33.83
2024-01-09T09:50:23.305Z,36.95
2024-01-09T09:52:50.124Z,36.08
2024-01-09T09:55:18.913Z,30.27
2024-01-09T09:57:45.532Z,37.50
2024-01-09T10:00:12.258Z,35.40
2024-01-09T10:02:45.133Z,29.55
2024-01-09T10:05:15.856Z,36.22
2024-01-09T10:07:47.402Z,27.90
2024-01-09T10:10:15.033Z,22.92
2024-01-09T10:12:42.468Z,33.92
2024-01-09T10:15:11.036Z,32.10
2024-01-09T10:17:38.669Z,33.60
2024-01-09T10:20:07.099Z,26.63
2024-01-09T10:22:33.507Z,31.35
2024-01-09T10:24:59.900Z,28.27
2024-01-09T10:27:27.106Z,32.13
2024-01-09T10:29:53.662Z,33.90
2024-01-09T10:32:20.173Z,30.20
2024-01-09T10:34:46.865Z,29.33
2024-01-09T10:37:14.142Z,35.42
2024-01-09T10:39:40.841Z,37.88
2024-01-09T10:42:11.033Z,34.38
2024-01-09T10:44:43.754Z,29.77
2024-01-09T10:47:10.722Z,27.85
2024-01-09T10:49:39.808Z,37.00
2024-01-09T10:52:10.927Z,30.48
2024-01-09T10:54:39.347Z,31.23
2024-01-09T10:57:07.747Z,32.33
2024-01-09T10:59:36.877Z,32.28
2024-01-09T11:02:04.511Z,26.10
2024-01-09T11:04:30.890Z,33.83
2024-01-09T11:06:57.337Z,30.83
2024-01-09T11:09:25.610Z,25.83
2024-01-09T11:11:53.092Z,32.38
2024-01-09T11:14:20.741Z,29.38
2024-01-09T11:16:49.861Z,34.55
2024-01-09T11:19:17.071Z,32.50
2024-01-09T11:21:43.670Z,25.33
2024-01-09T11:24:09.997Z,29.70
2024-01-09T11:26:41.685Z,28.40
2024-01-09T11:31:34.550Z,34.65
2024-01-09T11:34:01.163Z,29.20
2024-01-09T11:36:29.711Z,27.85
2024-01-09T11:38:56.166Z,25.35
2024-01-09T11:41:24.258Z,33.15
2024-01-09T11:43:59.394Z,31.13
2024-01-09T11:46:28.420Z,28.45
2024-01-09T11:48:56.057Z,35.90
2024-01-09T11:51:23.750Z,31.95
2024-01-09T11:53:50.960Z,30.88
2024-01-09T11:56:19.305Z,27.50
2024-01-09T11:58:46.645Z,25.40
2024-01-09T12:01:13.803Z,31.45
2024-01-09T12:03:40.315Z,36.65
2024-01-09T12:06:06.889Z,37.65
2024-01-09T12:08:33.977Z,28.05
2024-01-09T12:11:01.829Z,32.08
2024-01-09T12:13:28.400Z,35.63
2024-01-09T12:15:55.090Z,34.47
2024-01-09T12:18:21.627Z,32.25
2024-01-09T12:20:48.938Z,30.60
2024-01-09T12:23:15.603Z,31.13
2024-01-09T12:25:42.804Z,34.13
2024-01-09T12:28:09.202Z,34.20
2024-01-09T12:30:35.708Z,30.63
2024-01-09T12:33:02.429Z,30.30
2024-01-09T12:35:28.923Z,36.30
2024-01-09T12:37:55.509Z,30.90
2024-01-09T12:40:21.888Z,32.42
2024-01-09T12:43:07.528Z,30.80
2024-01-09T12:45:33.835Z,31.73
2024-01-09T12:48:00.342Z,36.22
2024-01-09T12:50:28.390Z,32.83
2024-01-09T12:52:54.841Z,34.17
2024-01-09T12:55:21.204Z,27.85
2024-01-09T12:57:47.553Z,33.03
2024-01-09T13:00:14.589Z,30.38
2024-01-09T13:02:41.057Z,36.85
2024-01-09T13:05:07.897Z,34.15
2024-01-09T13:07:34.551Z,34.40
2024-01-09T13:10:00.895Z,31.85
2024-01-09T13:12:27.422Z,32.30
2024-01-09T13:14:53.834Z,33.85
2024-01-09T13:17:20.194Z,32.08
2024-01-09T13:19:46.570Z,36.85
2024-01-09T13:24:42.192Z,30.80
2024-01-09T13:27:08.579Z,31.20
2024-01-09T13:32:04.671Z,37.00
2024-01-09T13:34:31.315Z,38.17
2024-01-09T13:36:57.810Z,32.78
2024-01-09T13:39:24.148Z,33.33
2024-01-09T13:41:50.505Z,35.53
2024-01-09T13:44:17.257Z,34.35
2024-01-09T13:46:44.801Z,30.13
2024-01-09T13:49:11.343Z,22.27
2024-01-09T13:51:51.270Z,36.83
2024-01-09T13:54:21.647Z,35.08
2024-01-09T13:56:47.980Z,31.60
2024-01-09T13:59:14.377Z,31.00
2024-01-09T14:01:44.293Z,31.58
2024-01-09T14:04:12.814Z,33.78
2024-01-09T14:06:39.140Z,33.67
2024-01-09T14:09:05.719Z,30.13
2024-01-09T14:11:32.047Z,31.40
2024-01-09T14:13:58.418Z,37.20
2024-01-09T14:16:24.889Z,34.03
2024-01-09T14:18:51.891Z,33.72
2024-01-09T14:21:18.251Z,34.58
2024-01-09T14:23:44.600Z,37.40
2024-01-09T14:26:11.026Z,32.30
2024-01-09T14:28:37.567Z,34.35
2024-01-09T14:31:04.315Z,36.00
2024-01-09T14:33:30.872Z,32.95
2024-01-09T14:35:57.275Z,31.85
2024-01-09T14:38:23.598Z,35.63
2024-01-09T14:40:50.000Z,39.90
2024-01-09T14:43:16.356Z,32.35
2024-01-09T14:45:42.735Z,22.35
2024-01-09T14:48:09.289Z,30.10
2024-01-09T14:50:36.263Z,29.55
2024-01-09T14:53:02.599Z,37.08
2024-01-09T14:55:29.126Z,36.05
2024-01-09T14:57:55.506Z,35.30
2024-01-09T15:00:22.059Z,33.30
2024-01-09T15:02:48.453Z,36.13
2024-01-09T15:05:16.897Z,33.70
2024-01-09T15:07:43.858Z,33.85
2024-01-09T15:10:10.669Z,34.70
2024-01-09T15:12:37.032Z,34.35
2024-01-09T15:15:04.608Z,31.20
2024-01-09T15:17:30.959Z,33.17
2024-01-09T15:19:57.386Z,35.25
2024-01-09T15:22:23.789Z,31.50
2024-01-09T15:24:50.319Z,28.90
2024-01-09T15:27:16.669Z,35.65
2024-01-09T15:29:43.059Z,32.80
2024-01-09T15:32:09.579Z,37.50
2024-01-09T15:34:36.030Z,39.92
2024-01-09T15:37:02.401Z,36.40
2024-01-09T15:39:28.723Z,37.08
2024-01-09T15:41:55.044Z,39.50
2024-01-09T15:44:21.489Z,33.03
2024-01-09T15:46:48.047Z,36.53
2024-01-09T15:49:14.486Z,31.65
2024-01-09T15:51:40.960Z,37.28
2024-01-09T15:54:07.265Z,34.53
2024-01-09T15:56:33.677Z,32.92
2024-01-09T15:59:00.084Z,40.50
2024-01-09T16:01:26.991Z,28.88
2024-01-09T16:03:54.128Z,28.83
2024-01-09T16:06:20.633Z,34.97
2024-01-09T16:08:49.383Z,38.15
2024-01-09T16:11:16.881Z,38.65
2024-01-09T16:13:43.332Z,36.70
2024-01-09T16:16:17.993Z,40.88
2024-01-09T16:18:45.332Z,40.47
2024-01-09T16:21:12.183Z,40.90
2024-01-09T16:23:39.734Z,39.17
2024-01-09T16:26:06.607Z,41.85
2024-01-09T16:28:33.655Z,37.55
2024-01-09T16:31:00.186Z,43.72
2024-01-09T16:33:29.680Z,41.25
2024-01-09T16:35:56.564Z,41.00
2024-01-09T16:38:22.894Z,41.42
2024-01-09T16:40:49.390Z,40.20
2024-01-09T16:43:15.778Z,45.83
2024-01-09T16:45:42.278Z,40.70
2024-01-09T16:48:08.919Z,26.88
2024-01-09T16:50:35.348Z,44.00
2024-01-09T16:53:01.987Z,49.75
2024-01-09T16:55:28.340Z,41.72
2024-01-09T16:57:54.711Z,44.47
2024-01-09T17:00:21.356Z,41.65
2024-01-09T17:02:47.750Z,40.60
2024-01-09T17:05:14.211Z,39.28
2024-01-09T17:07:40.722Z,42.50
2024-01-09T17:10:07.460Z,40.90
2024-01-09T17:12:33.909Z,34.63
2024-01-09T17:15:00.271Z,36.92
2024-01-09T17:17:26.710Z,43.55
2024-01-09T17:19:53.217Z,43.05
2024-01-09T17:22:19.617Z,40.95
2024-01-09T17:24:45.954Z,42.30
2024-01-09T17:27:12.269Z,39.72
2024-01-09T17:29:40.591Z,40.15
2024-01-09T17:32:08.458Z,39.53
2024-01-09T17:34:34.801Z,40.65
2024-01-09T17:37:01.164Z,39.97
2024-01-09T17:39:27.563Z,41.67
2024-01-09T17:41:53.879Z,38.83
2024-01-09T17:44:20.284Z,36.38
2024-01-09T17:46:46.690Z,38.72
2024-01-09T17:49:13.052Z,37.58
2024-01-09T17:51:40.399Z,39.08
2024-01-09T17:54:06.989Z,42.53
2024-01-09T17:56:37.638Z,38.92
2024-01-09T17:59:04.236Z,43.92
2024-01-09T18:01:30.615Z,44.08
2024-01-09T18:03:57.099Z,34.20
2024-01-09T18:06:23.535Z,39.45
2024-01-09T18:08:49.876Z,36.60
2024-01-09T18:11:23.954Z,41.67
2024-01-09T18:13:51.020Z,43.17
2024-01-09T18:16:17.368Z,36.60
2024-01-09T18:18:43.796Z,40.10
2024-01-09T18:21:10.118Z,34.65
2024-01-09T18:23:36.494Z,42.00
2024-01-09T18:26:02.917Z,42.20
2024-01-09T18:28:29.776Z,40.95
2024-01-09T18:30:56.434Z,41.58
2024-01-09T18:33:22.854Z,40.53
2024-01-09T18:35:49.237Z,43.72
2024-01-09T18:38:15.627Z,40.90
2024-01-09T18:40:42.049Z,43.47
2024-01-09T18:43:08.580Z,41.60
2024-01-09T18:45:36.860Z,40.20
2024-01-09T18:48:03.462Z,40.95
2024-01-09T18:50:29.873Z,41.80
2024-01-09T18:52:56.271Z,41.47
2024-01-09T18:55:22.693Z,37.95
2024-01-09T18:57:48.987Z,43.47
2024-01-09T19:00:15.764Z,41.80
2024-01-09T19:02:42.115Z,39.95
2024-01-09T19:05:09.635Z,42.58
2024-01-09T19:07:36.143Z,45.25
2024-01-09T19:10:02.654Z,42.33
2024-01-09T19:12:29.176Z,41.45
2024-01-09T19:14:55.591Z,43.97
2024-01-09T19:17:21.994Z,41.78
2024-01-09T19:19:48.875Z,41.30
2024-01-09T19:22:15.362Z,44.13
2024-01-09T19:24:41.685Z,46.25
2024-01-09T19:27:08.185Z,46.53
2024-01-09T19:29:34.723Z,48.35
2024-01-09T19:32:01.144Z,50.03
2024-01-09T19:34:27.629Z,52.25
2024-01-09T19:36:54.059Z,53.63
2024-01-09T19:39:20.422Z,46.25
2024-01-09T19:41:46.779Z,50.28
2024-01-09T19:44:13.256Z,45.20
2024-01-09T19:46:40.575Z,42.45
2024-01-09T19:49:07.049Z,49.15
2024-01-09T19:51:33.465Z,41.20
2024-01-09T19:53:59.874Z,45.22
2024-01-09T19:56:30.082Z,45.42
2024-01-09T19:58:56.488Z,47.25
2024-01-09T20:01:23.052Z,44.33
2024-01-09T20:03:49.385Z,48.25
2024-01-09T20:06:23.043Z,45.42
2024-01-09T20:08:49.453Z,47.47
2024-01-09T20:11:26.486Z,49.35
2024-01-09T20:13:53.368Z,47.60
2024-01-09T20:16:21.424Z,47.85
2024-01-09T20:18:48.444Z,45.83
2024-01-09T20:21:15.501Z,50.95
2024-01-09T20:23:42.581Z,44.70
2024-01-09T20:26:09.166Z,46.85
2024-01-09T20:28:35.953Z,46.03
2024-01-09T20:31:02.625Z,49.55
2024-01-09T20:33:29.107Z,50.90
2024-01-09T20:35:57.371Z,45.08
2024-01-09T20:38:25.162Z,45.95
2024-01-09T20:40:51.542Z,49.05
2024-01-09T20:43:18.010Z,45.97
2024-01-09T20:45:44.449Z,48.38
2024-01-09T20:48:10.784Z,48.15
2024-01-09T20:50:37.214Z,47.63
2024-01-09T20:53:03.735Z,50.30
2024-01-09T20:55:30.095Z,44.50
2024-01-09T20:57:56.401Z,45.35
2024-01-09T21:00:22.731Z,50.03
2024-01-09T21:02:49.057Z,48.45
2024-01-09T21:05:15.552Z,49.67
2024-01-09T21:07:41.961Z,53.08
2024-01-09T21:10:09.261Z,52.80
2024-01-09T21:12:35.994Z,43.10
2024-01-09T21:15:02.347Z,54.60
2024-01-09T21:17:28.704Z,45.05
2024-01-09T21:19:55.325Z,51.55
2024-01-09T21:22:21.756Z,46.03
2024-01-09T21:24:48.104Z,44.63
2024-01-09T21:27:14.455Z,47.97
2024-01-09T21:29:40.821Z,48.13
2024-01-09T21:32:07.592Z,54.00
2024-01-09T21:34:34.117Z,51.92
2024-01-09T21:37:00.481Z,49.17
2024-01-09T21:39:26.899Z,49.50
2024-01-09T21:41:55.838Z,55.17
2024-01-09T21:44:22.963Z,51.47
2024-01-09T21:46:49.363Z,53.10
2024-01-09T21:49:15.842Z,52.83
2024-01-09T21:51:42.290Z,51.22
2024-01-09T21:54:08.609Z,59.95
2024-01-09T21:56:36.821Z,52.90
2024-01-09T21:59:03.185Z,57.25
2024-01-09T22:01:30.170Z,57.45
2024-01-09T22:03:56.919Z,53.95
2024-01-09T22:06:23.497Z,51.28
2024-01-09T22:08:49.878Z,48.05
2024-01-09T22:11:16.262Z,54.22
2024-01-09T22:13:42.666Z,52.25
2024-01-09T22:16:09.049Z,54.17
2024-01-09T22:18:35.492Z,51.97
2024-01-09T22:21:02.298Z,52.20
2024-01-09T22:23:28.680Z,51.08
2024-01-09T22:25:55.074Z,57.53
2024-01-09T22:28:21.407Z,50.28
2024-01-09T22:30:47.742Z,47.63
2024-01-09T22:33:14.192Z,55.95
2024-01-09T22:35:41.720Z,51.80
2024-01-09T22:38:08.336Z,48.33
2024-01-09T22:40:34.901Z,47.40
2024-01-09T22:43:01.240Z,50.17
2024-01-09T22:45:27.628Z,49.92
2024-01-09T22:47:54.057Z,49.60
2024-01-09T22:50:20.464Z,51.17
2024-01-09T22:52:46.851Z,53.40
2024-01-09T22:55:13.267Z,48.15
2024-01-09T22:57:40.018Z,49.05
2024-01-09T23:00:08.836Z,49.55
2024-01-09T23:02:35.523Z,53.22
2024-01-09T23:05:02.094Z,48.83
2024-01-09T23:07:28.602Z,49.75
2024-01-09T23:09:54.917Z,56.75
2024-01-09T23:12:21.247Z,48.17
2024-01-09T23:14:47.587Z,55.40
2024-01-09T23:17:14.968Z,58.92
2024-01-09T23:19:42.259Z,48.60
2024-01-09T23:22:08.639Z,48.08
2024-01-09T23:24:35.156Z,54.50
2024-01-09T23:27:01.472Z,52.05
2024-01-09T23:29:30.965Z,53.67
2024-01-09T23:31:57.344Z,52.40
2024-01-09T23:34:23.839Z,56.50
2024-01-09T23:36:50.196Z,50.30
2024-01-09T23:39:17.062Z,51.28
2024-01-09T23:41:43.717Z,56.08
2024-01-09T23:44:10.144Z,55.17
2024-01-09T23:46:36.639Z,46.58
2024-01-09T23:49:03.142Z,47.05
2024-01-09T23:51:29.499Z,47.45
2024-01-09T23:53:55.823Z,53.45
2024-01-09T23:56:22.368Z,49.97
2024-01-09T23:58:48.743Z,49.55
